LFLL/LYS METAR and TAF weather

Enter ICAO airport designator
Station Type Date Time Source
LFLL METAR 2020/05/29 19:00 UTC NOAA

LFLL 291900Z AUTO 33009KT CAVOK 22/06 Q1017 NOSIG


Station Type Date Time Source
LFLL Decoded METAR 2020/05/29 19:00 UTC NOAA

Lyon / Satolas, France (LFLL) 45-44N 005-05E 240M
May 29, 2020 - 03:00 PM EDT / 2020.05.29 1900 UTC
Wind: from the NNW (330 degrees) at 10 MPH (9 KT):0
Visibility: greater than 7 mile(s):0
Temperature: 71 F (22 C)
Dew Point: 42 F (6 C)
Relative Humidity: 35%
Pressure (altimeter): 30.03 in. Hg (1017 hPa)
ob: LFLL 291900Z AUTO 33009KT CAVOK 22/06 Q1017 NOSIG
cycle: 19

Station Type Date Time Source
LFLL TAF 2020/05/29 18:21 UTC NOAA

TAF LFLL 291700Z 2918/3024 35010KT CAVOK
BECMG 2919/2922 VRB02KT PROB40
TEMPO 3000/3006 14010KT
BECMG 3011/3013 36010KT
BECMG 3020/3022 VRB02KT

Example: see airport list